Time;durP1;ratioP1;P1;durP2;ratioP2;P2;SDS_P1;SDS_P2;PMS_P1;PMS_P2;Temp;Humidity;BMP_temperature;BMP_pressure;BME280_temperature;BME280_humidity;BME280_pressure;Samples;Min_cycle;Max_cycle;Signal;HPM_P1;HPM_P2
2023/03/02 17:36:47;;;;;;;;;;;;;;;9.83;69.30;99261.50;5954897;23;21016;-88
2023/03/02 17:39:13;;;;;;;;;;;;;;;9.81;69.12;99255.56;5004106;28;19926;-88
2023/03/02 17:41:39;;;;;;;;;;;;;;;9.80;68.93;99264.28;5007793;28;20496;-87
2023/03/02 17:44:04;;;;;;;;;;;;;;;9.80;68.91;99267.72;4987359;28;19980;-84
2023/03/02 17:46:31;;;;;;;;;;;;;;;9.79;68.81;99266.06;4987352;28;20300;-83
2023/03/02 17:48:56;;;;;;;;;;;;;;;9.78;68.59;99264.41;5005051;28;20286;-86
2023/03/02 17:51:22;;;;;;;;;;;;;;;9.76;68.67;99266.28;5003025;28;20008;-82
2023/03/02 17:53:48;;;;;;;;;;;;;;;9.75;68.59;99262.81;4987400;28;19949;-82
2023/03/02 17:56:14;;;;;;;;;;;;;;;9.74;68.48;99271.59;4987822;28;19918;-88
2023/03/02 17:58:42;;;;;;;;;;;;;;;9.74;68.38;99273.34;5004302;28;19918;-81
2023/03/02 18:01:08;;;;;;;;;;;;;;;9.73;68.38;99272.50;5020428;28;20211;-88
2023/03/02 18:03:33;;;;;;;;;;;;;;;9.72;68.25;99270.81;4988642;28;19921;-83
2023/03/02 18:06:02;;;;;;;;;;;;;;;9.73;68.33;99269.06;5001399;28;19924;-88
2023/03/02 18:08:27;;;;;;;;;;;;;;;9.73;69.29;99267.28;5021659;28;20479;-83
2023/03/02 18:10:53;;;;;;;;;;;;;;;9.77;69.45;99263.56;4996003;28;19948;-77
2023/03/02 18:13:18;;;;;;;;;;;;;;;9.79;69.00;99271.28;5012603;28;19936;-82
2023/03/02 18:15:43;;;;;;;;;;;;;;;9.76;68.90;99269.72;4979569;28;20398;-79
2023/03/02 18:18:09;;;;;;;;;;;;;;;9.76;68.77;99271.50;4994083;28;19985;-74
2023/03/02 18:20:34;;;;;;;;;;;;;;;9.76;68.63;99261.88;4994654;28;19917;-76
2023/03/02 18:22:59;;;;;;;;;;;;;;;9.74;68.41;99261.16;4994540;28;19919;-74
2023/03/02 18:25:25;;;;;;;;;;;;;;;9.74;68.47;99268.13;4977051;28;19940;-75
2023/03/02 18:27:50;;;;;;;;;;;;;;;9.71;68.09;99269.16;4978352;28;19918;-75
2023/03/02 18:30:16;;;;;;;;;;;;;;;9.72;68.13;99275.22;4978094;28;20307;-74
2023/03/02 18:32:41;;;;;;;;;;;;;;;9.71;68.05;99268.31;4977639;28;20596;-73
2023/03/02 18:35:06;;;;;;;;;;;;;;;9.70;68.06;99269.28;4991625;28;19917;-78
2023/03/02 18:37:32;;;;;;;;;;;;;;;9.70;67.98;99266.66;4953909;28;19926;-80
2023/03/02 18:39:58;;;;;;;;;;;;;;;9.69;67.95;99268.41;4954629;28;19992;-76
2023/03/02 18:42:23;;;;;;;;;;;;;;;9.67;67.87;99274.69;4986902;28;19918;-77
2023/03/02 18:44:49;;;;;;;;;;;;;;;9.68;67.78;99271.16;4974032;28;20309;-77
2023/03/02 18:47:14;;;;;;;;;;;;;;;9.66;67.79;99273.84;4973539;28;20403;-76
2023/03/02 18:49:41;;;;;;;;;;;;;;;9.65;67.88;99271.34;4973332;28;19925;-78
2023/03/02 18:52:08;;;;;;;;;;;;;;;9.65;67.55;99271.34;4989472;28;19993;-78
2023/03/02 18:54:34;;;;;;;;;;;;;;;9.63;67.69;99275.78;4974553;28;20373;-79
2023/03/02 18:57:00;;;;;;;;;;;;;;;9.62;67.66;99266.31;4970368;28;19929;-79
2023/03/02 18:59:26;;;;;;;;;;;;;;;9.61;67.50;99270.69;4970510;28;20034;-77
2023/03/02 19:01:51;;;;;;;;;;;;;;;9.59;67.70;99270.78;4974070;28;19922;-75
2023/03/02 19:04:16;;;;;;;;;;;;;;;9.60;67.58;99271.63;4974727;28;19948;-76
2023/03/02 19:06:41;;;;;;;;;;;;;;;9.61;67.42;99270.69;4991249;28;19918;-81
2023/03/02 19:09:07;;;;;;;;;;;;;;;9.59;67.52;99262.13;4958180;28;19921;-79
2023/03/02 19:11:32;;;;;;;;;;;;;;;9.60;67.51;99261.22;4974122;28;19918;-78
2023/03/02 19:13:57;;;;;;;;;;;;;;;9.59;67.35;99257.75;4974349;28;19922;-79
2023/03/02 19:16:23;;;;;;;;;;;;;;;9.57;67.33;99267.44;4973914;28;19925;-78
2023/03/02 19:18:48;;;;;;;;;;;;;;;9.56;67.28;99263.16;4990489;28;19932;-79
2023/03/02 19:21:14;;;;;;;;;;;;;;;9.56;67.30;99268.38;4990709;28;19918;-79
2023/03/02 19:23:40;;;;;;;;;;;;;;;9.56;67.17;99265.75;4990188;28;19940;-80
2023/03/02 19:26:06;;;;;;;;;;;;;;;9.57;67.17;99277.88;4970945;28;19980;-79
2023/03/02 19:28:33;;;;;;;;;;;;;;;9.57;67.21;99271.84;4954870;28;19914;-78
2023/03/02 19:31:01;;;;;;;;;;;;;;;9.55;67.21;99269.31;4939054;28;19954;-79
2023/03/02 19:33:27;;;;;;;;;;;;;;;9.54;67.21;99265.03;4938746;28;20047;-79
2023/03/02 19:35:53;;;;;;;;;;;;;;;9.55;67.08;99264.09;4959783;28;19976;-79
2023/03/02 19:38:18;;;;;;;;;;;;;;;9.53;67.21;99263.34;4985592;28;19964;-79
2023/03/02 19:40:43;;;;;;;;;;;;;;;9.53;67.21;99259.91;4957825;28;19925;-80
2023/03/02 19:43:09;;;;;;;;;;;;;;;9.53;67.17;99265.94;4958149;28;19921;-80
2023/03/02 19:45:35;;;;;;;;;;;;;;;9.52;67.07;99259.09;4957854;28;20420;-80
2023/03/02 19:48:00;;;;;;;;;;;;;;;9.52;67.06;99259.09;4958058;28;19922;-79
2023/03/02 19:50:25;;;;;;;;;;;;;;;9.53;67.13;99258.13;4974144;28;19918;-79
2023/03/02 19:52:53;;;;;;;;;;;;;;;9.52;66.87;99248.66;4957803;28;19925;-78
2023/03/02 19:55:19;;;;;;;;;;;;;;;9.53;66.98;99246.88;4958254;28;19917;-79
2023/03/02 19:57:49;;;;;;;;;;;;;;;9.52;66.77;99240.00;4974159;28;20392;-78
2023/03/02 20:00:15;;;;;;;;;;;;;;;9.51;66.93;99239.16;4991631;28;19925;-78
2023/03/02 20:02:40;;;;;;;;;;;;;;;9.51;67.00;99239.16;4973827;28;19917;-79
2023/03/02 20:05:07;;;;;;;;;;;;;;;9.51;66.87;99243.56;4977579;28;20361;-79
2023/03/02 20:07:32;;;;;;;;;;;;;;;9.50;66.93;99239.25;4961143;28;19917;-80
2023/03/02 20:09:57;;;;;;;;;;;;;;;9.49;66.96;99241.03;4989239;28;19984;-79
2023/03/02 20:12:25;;;;;;;;;;;;;;;9.49;66.86;99238.44;4992996;28;20229;-79
2023/03/02 20:14:51;;;;;;;;;;;;;;;9.49;66.76;99237.56;4995916;28;20010;-80
2023/03/02 20:17:18;;;;;;;;;;;;;;;9.50;66.96;99237.47;4995841;28;19941;-83
2023/03/02 20:19:43;;;;;;;;;;;;;;;9.50;66.88;99239.25;4980837;28;19927;-78
2023/03/02 20:22:09;;;;;;;;;;;;;;;9.49;66.76;99238.44;4983172;28;20011;-84
2023/03/02 20:24:34;;;;;;;;;;;;;;;9.50;66.66;99239.25;5000637;28;19940;-82
2023/03/02 20:27:00;;;;;;;;;;;;;;;9.50;66.65;99240.09;5013953;28;19956;-82
2023/03/02 20:29:25;;;;;;;;;;;;;;;9.51;66.64;99233.13;5014605;28;19924;-80
2023/03/02 20:31:51;;;;;;;;;;;;;;;9.50;66.62;99239.25;4996105;28;19940;-81
2023/03/02 20:34:16;;;;;;;;;;;;;;;9.49;66.65;99228.00;4971911;28;19925;-79
2023/03/02 20:39:25;;;;;;;;;;;;;;;9.49;66.59;99230.63;5148193;23;19948;-86
2023/03/02 20:41:50;;;;;;;;;;;;;;;9.49;66.65;99227.16;5046134;28;19921;-88
2023/03/02 20:44:15;;;;;;;;;;;;;;;9.49;66.58;99219.34;5048532;28;20012;-85
2023/03/02 20:46:43;;;;;;;;;;;;;;;9.50;66.45;99228.84;5044013;28;19924;-84
2023/03/02 20:49:08;;;;;;;;;;;;;;;9.49;66.54;99220.19;5019332;28;19924;-83
2023/03/02 20:51:34;;;;;;;;;;;;;;;9.48;66.45;99218.50;5037180;28;19916;-79
2023/03/02 20:53:59;;;;;;;;;;;;;;;9.48;66.47;99215.91;5021064;28;19974;-80
2023/03/02 20:56:25;;;;;;;;;;;;;;;9.49;66.56;99214.13;5022044;28;19924;-80
2023/03/02 20:58:50;;;;;;;;;;;;;;;9.47;66.53;99202.97;5020925;28;19923;-84
2023/03/02 21:01:16;;;;;;;;;;;;;;;9.47;66.35;99206.44;5037487;28;19916;-79
2023/03/02 21:03:41;;;;;;;;;;;;;;;9.48;66.31;99215.91;5036956;28;19916;-79
2023/03/02 21:06:07;;;;;;;;;;;;;;;9.48;66.36;99209.88;5036422;28;20376;-80
2023/03/02 21:08:37;;;;;;;;;;;;;;;9.47;66.32;99206.44;5020206;28;19917;-79
2023/03/02 21:11:07;;;;;;;;;;;;;;;9.47;66.21;99205.56;5035719;28;19940;-82
2023/03/02 21:13:32;;;;;;;;;;;;;;;9.47;66.24;99197.75;5024579;28;20031;-81
2023/03/02 21:15:57;;;;;;;;;;;;;;;9.47;66.23;99189.94;5008250;28;20003;-79
2023/03/02 21:18:23;;;;;;;;;;;;;;;9.45;66.18;99192.63;5042903;28;20004;-81
2023/03/02 21:20:48;;;;;;;;;;;;;;;9.46;66.23;99191.72;5008812;28;19927;-79
2023/03/02 21:23:14;;;;;;;;;;;;;;;9.46;66.24;99191.72;5026273;28;20411;-79
2023/03/02 21:25:39;;;;;;;;;;;;;;;9.46;66.13;99183.06;5007903;28;20469;-81
2023/03/02 21:28:04;;;;;;;;;;;;;;;9.46;66.13;99188.28;5009064;28;19917;-81
2023/03/02 21:30:31;;;;;;;;;;;;;;;9.47;66.05;99182.13;5009040;28;19925;-81
2023/03/02 21:32:56;;;;;;;;;;;;;;;9.45;66.13;99179.63;5016993;28;20004;-81
2023/03/02 21:35:24;;;;;;;;;;;;;;;9.46;66.14;99172.66;5017711;28;19949;-81
2023/03/02 21:37:51;;;;;;;;;;;;;;;9.45;66.07;99171.78;5017090;28;19921;-83
2023/03/02 21:40:18;;;;;;;;;;;;;;;9.46;66.07;99172.66;5017531;28;19928;-81
2023/03/02 21:42:43;;;;;;;;;;;;;;;9.45;66.02;99170.97;5018148;28;19917;-81
2023/03/02 21:45:09;;;;;;;;;;;;;;;9.45;66.03;99170.97;5016738;28;19927;-81
2023/03/02 21:47:35;;;;;;;;;;;;;;;9.45;66.08;99171.78;5000401;28;19924;-81
2023/03/02 21:50:00;;;;;;;;;;;;;;;9.45;66.01;99171.78;5000264;28;20312;-81
2023/03/02 21:52:26;;;;;;;;;;;;;;;9.45;65.87;99173.56;5000130;28;19917;-81
2023/03/02 21:54:52;;;;;;;;;;;;;;;9.44;66.29;99167.53;5016580;28;19918;-82
2023/03/02 21:57:17;;;;;;;;;;;;;;;9.44;66.06;99161.47;5034083;28;19924;-82
2023/03/02 21:59:42;;;;;;;;;;;;;;;9.44;65.85;99162.31;4999958;28;19996;-82
2023/03/02 22:02:08;;;;;;;;;;;;;;;9.42;65.94;99161.56;5033998;28;19921;-81
2023/03/02 22:04:34;;;;;;;;;;;;;;;9.44;65.92;99157.13;5016632;28;19917;-81
2023/03/02 22:06:59;;;;;;;;;;;;;;;9.43;65.95;99158.03;4999949;28;19917;-84
2023/03/02 22:09:25;;;;;;;;;;;;;;;9.43;65.94;99158.03;5000013;28;19913;-82
2023/03/02 22:11:50;;;;;;;;;;;;;;;9.43;65.95;99150.22;5016207;28;20295;-82
2023/03/02 22:14:16;;;;;;;;;;;;;;;9.43;65.87;99154.59;4999746;28;19919;-79
2023/03/02 22:16:43;;;;;;;;;;;;;;;9.41;65.42;99154.72;5000201;28;19987;-80
2023/03/02 22:19:25;;;;;;;;;;;;;;;9.42;65.83;99153.75;5016491;28;19985;-79
2023/03/02 22:21:51;;;;;;;;;;;;;;;9.41;65.74;99152.94;5015979;28;19917;-80
2023/03/02 22:24:26;;;;;;;;;;;;;;;9.41;65.90;99152.09;5015575;28;19924;-80
2023/03/02 22:27:07;;;;;;;;;;;;;;;9.40;65.69;99151.25;4999451;28;19940;-81
2023/03/02 22:29:43;;;;;;;;;;;;;;;9.42;65.88;99151.16;4999360;28;20032;-81
2023/03/02 22:32:40;;;;;;;;;;;;;;;9.41;65.60;99146.88;5015406;28;20070;-81
2023/03/02 22:35:12;;;;;;;;;;;;;;;9.41;65.79;99139.91;4936960;29;19919;-80
2023/03/02 22:37:38;;;;;;;;;;;;;;;9.41;65.68;99152.94;4936639;29;20016;-81
2023/03/02 22:40:15;;;;;;;;;;;;;;;9.41;65.83;99147.72;4920812;29;20029;-79
2023/03/02 22:42:41;;;;;;;;;;;;;;;9.40;65.69;99140.81;4936917;29;19997;-80
2023/03/02 22:45:21;;;;;;;;;;;;;;;9.40;65.58;99148.63;4920863;29;20374;-80
2023/03/02 22:47:50;;;;;;;;;;;;;;;9.40;65.57;99145.22;4937205;29;20021;-79
2023/03/02 22:50:21;;;;;;;;;;;;;;;9.39;65.80;99143.53;4921265;29;20039;-79
2023/03/02 22:52:46;;;;;;;;;;;;;;;9.39;65.68;99141.78;4936638;29;19923;-80
2023/03/02 22:55:34;;;;;;;;;;;;;;;9.38;65.67;99147.09;4936718;29;19918;-81
2023/03/02 22:58:01;;;;;;;;;;;;;;;9.38;65.64;99140.09;4920679;29;20405;-80
2023/03/02 23:00:33;;;;;;;;;;;;;;;9.37;65.67;99142.81;4920560;29;19925;-79
2023/03/02 23:02:58;;;;;;;;;;;;;;;9.36;65.73;99133.31;4920827;29;20287;-80
2023/03/02 23:05:28;;;;;;;;;;;;;;;9.35;65.51;99135.09;4952032;29;20013;-80
2023/03/02 23:08:14;;;;;;;;;;;;;;;9.36;65.65;99134.16;4952295;29;19922;-79
2023/03/02 23:10:39;;;;;;;;;;;;;;;9.37;65.53;99128.00;4959598;28;19961;-79
2023/03/02 23:13:04;;;;;;;;;;;;;;;9.37;65.42;99132.38;5015215;28;20284;-79
2023/03/02 23:15:31;;;;;;;;;;;;;;;9.36;65.38;99128.09;4997873;28;20000;-79
2023/03/02 23:17:56;;;;;;;;;;;;;;;9.36;65.52;99126.34;4998114;28;19918;-79
2023/03/02 23:20:22;;;;;;;;;;;;;;;9.36;65.45;99121.13;5014592;28;19917;-80
2023/03/02 23:22:48;;;;;;;;;;;;;;;9.36;65.27;99126.34;5014972;28;19917;-79
2023/03/02 23:25:14;;;;;;;;;;;;;;;9.35;65.42;99114.25;5014710;28;19917;-79
2023/03/02 23:27:40;;;;;;;;;;;;;;;9.35;65.46;99118.63;5014868;28;19925;-79
2023/03/02 23:30:05;;;;;;;;;;;;;;;9.35;65.74;99116.84;4998556;28;20379;-79
2023/03/02 23:32:30;;;;;;;;;;;;;;;9.34;65.39;99112.56;5014494;28;20330;-79
2023/03/02 23:34:56;;;;;;;;;;;;;;;9.35;65.32;99109.03;5014558;28;19918;-79
2023/03/02 23:37:21;;;;;;;;;;;;;;;9.34;65.44;99106.53;4998041;28;19924;-79
2023/03/02 23:39:46;;;;;;;;;;;;;;;9.34;65.37;99099.53;5014765;28;19930;-79
2023/03/02 23:42:12;;;;;;;;;;;;;;;9.34;65.31;99103.91;5016361;28;19928;-80
2023/03/02 23:44:37;;;;;;;;;;;;;;;9.34;65.35;99096.09;5015008;28;20292;-77
2023/03/02 23:47:03;;;;;;;;;;;;;;;9.33;65.42;99102.25;5015265;28;19918;-82
2023/03/02 23:49:28;;;;;;;;;;;;;;;9.33;65.42;99097.03;5015008;28;19921;-82
2023/03/02 23:51:53;;;;;;;;;;;;;;;9.32;65.27;99097.97;5014965;28;19918;-82
2023/03/02 23:54:19;;;;;;;;;;;;;;;9.32;65.37;99082.34;5014758;28;20257;-80
2023/03/02 23:56:44;;;;;;;;;;;;;;;9.32;65.30;99088.38;4998309;28;20312;-81
2023/03/02 23:59:09;;;;;;;;;;;;;;;9.33;65.26;99086.59;5016265;28;19924;-81
